x

Long Island - 30 Nm South Of Islip, Ny (44025) Wave Buoy

4:50am - Sun 22nd Oct 2017 All times are EDT. -4 hours from GMT.

  • Sig Wave height 1.6ft
  • Swell Direction
  • Peak Period 8s
  • Average Period 6s
  • Wind
    4mph, 7mph gusts
  • Sea Temp 64°f
  • Air Temp 64°f
  • Sea Pressure 1028.3mb
  • Long Island - 30 Nm South Of Islip, Ny
  • Long Island - 30 Nm South Of Islip, Ny

More Historic Weather Station data

Upgrade to MSW Pro to gain access to the past 30 days of data for over 8000 Wavebouys and Weather Stations around the globe.

Join

Comparision Forecast

View Surf forecast
   
Sun 10/22 4:50am 1.6ft 8s 6s 4 7 mph 1028.3mb 64f 64f
3:50am 1.6ft 8s 6s 7 7 mph 1028mb 64f 64f
2:50am 1.6ft 9s 6s 9 9 mph 1028mb 64f 64f
1:50am 1.6ft 8s 5s 7 9 mph 1028.1mb 64f 64f
12:50am 1.6ft 9s 5s 9 11 mph 1027.9mb 64f 64f
Sat 10/21 11:50pm 1.6ft 9s 5s 9 11 mph 1028.1mb 64f 64f
10:50pm 1.6ft 9s 5s 9 11 mph 1028.2mb 64f 64f
8:50pm 1.6ft 8s 5s 11 13 mph 1027.9mb 64f 64f
7:50pm 1.6ft 8s 6s 9 11 mph 1027.9mb 65f 64f
6:50pm 1.6ft 8s 6s 9 11 mph 1027.5mb 65f 64f
5:50pm 1.6ft 8s 7s 9 11 mph 1027.1mb 65f 65f
4:50pm 1.6ft 9s 7s 9 11 mph 1026.8mb 65f 65f
3:50pm 1.6ft 9s 7s 9 9 mph 1026.8mb 66f 65f
2:50pm 1.6ft 8s 7s 7 7 mph 1027mb 66f 65f
1:50pm 1.6ft 9s 6s 7 7 mph 1026.9mb 66f 65f
12:50pm 2ft 8s 6s 2 2 mph 1027.3mb 66f 66f
11:50am 1.6ft 9s 6s  -  0 mph 1027.6mb 65f 66f
10:50am 1.6ft 8s 6s 4 4 mph 1027.5mb 64f 64f
9:50am 2ft 8s 6s 7 7 mph 1027.3mb 64f 64f
8:50am 1.6ft 8s 5s 7 9 mph 1026.7mb 64f 64f
7:50am 1.6ft 8s 5s 9 11 mph 1025.5mb 64f 64f
6:50am 1.6ft 9s 5s 7 9 mph 1025.2mb 64f 64f
5:50am 2ft 8s 5s 11 11 mph 1024.7mb 64f 64f
4:50am 1.6ft 9s 5s 13 16 mph 1024.2mb 64f 64f
3:50am 1.6ft 8s 6s 11 11 mph 1024.1mb 64f 65f
2:50am 1.6ft 9s 6s 9 9 mph 1023.7mb 64f 65f
1:50am 2ft 8s 6s 7 9 mph 1023.6mb 64f 65f
12:50am 1.6ft 9s 6s 7 9 mph 1023.1mb 64f 65f
Fri 10/20 11:50pm 1.6ft 9s 6s 7 9 mph 1023mb 64f 65f
10:50pm 2ft 9s 6s 4 7 mph 1022.4mb 64f 65f
9:50pm 2ft 9s 5s 4 7 mph 1021.6mb 64f 65f
8:50pm 2ft 9s 5s 4 7 mph 1021.1mb 64f 66f
7:50pm 2.5ft 8s 5s 11 13 mph 1020.6mb 64f 66f
6:50pm 2.5ft 9s 5s 11 11 mph 1020.1mb 64f 67f
5:50pm 2.5ft 9s 5s 13 18 mph 1019.3mb 64f 67f
4:50pm 2.5ft 9s 5s 11 13 mph 1019.2mb 64f 67f
3:50pm 3.5ft 9s 4s 16 20 mph 1018.9mb 64f 67f
2:50pm 3ft 9s 4s 16 18 mph 1019.2mb 64f 65f
1:50pm 3ft 9s 4s 13 16 mph 1019.5mb 64f 64f
12:50pm 3.5ft 5s 4s 16 18 mph 1020.2mb 64f 64f
11:50am 4ft 4s 4s 16 18 mph 1020.9mb 64f 64f
10:50am 4.5ft 5s 4s 18 22 mph 1020.9mb 64f 63f
9:50am 4.5ft 5s 5s 20 22 mph 1020.6mb 64f 63f
8:50am 4ft 9s 4s 22 25 mph 1020.3mb 64f 64f
7:50am 4ft 9s 5s 20 25 mph 1019.5mb 64f 64f
6:50am 4.5ft 5s 5s 18 22 mph 1018.8mb 64f 64f
5:50am 4ft 8s 5s 18 22 mph 1018.6mb 64f 64f
4:50am 4ft 9s 5s 16 18 mph 1018.3mb 64f 63f
3:50am 4.5ft 9s 5s 18 20 mph 1018.2mb 64f 64f
2:50am 4ft 5s 5s 18 22 mph 1018.2mb 64f 64f
1:50am 4ft 5s 5s 20 25 mph 1018.7mb 64f 64f
12:50am 4.5ft 5s 5s 20 25 mph 1018.9mb 64f 64f
Thu 10/19 11:50pm 4.5ft 9s 5s 18 22 mph 1019.1mb 64f 65f
10:50pm 4.5ft 5s 5s 18 22 mph 1019mb 64f 64f
9:50pm 4.5ft 5s 5s 18 22 mph 1019.4mb 64f 64f
8:50pm 4.5ft 5s  -  20 25 mph 1019.2mb 64f 64f
7:50pm 4.5ft 9s 5s 20 22 mph 1019.3mb 64f 64f
6:50pm 4.5ft 9s 5s 20 25 mph 1019.1mb 64f 64f
5:50pm 4ft 5s 5s 18 22 mph 1019.4mb 64f 64f
4:50pm 4ft 8s 5s 20 25 mph 1020mb 64f 64f
3:50pm 3.5ft 4s 5s 18 22 mph 1020.7mb 64f 64f
2:50pm 3.5ft 9s 5s 18 20 mph 1021.8mb 64f 63f
1:50pm 3.5ft 9s 5s 18 20 mph 1022.5mb 64f 63f
12:50pm 3ft 10s 5s 16 20 mph 1023.5mb 64f 62f
11:50am 3.5ft 9s 5s 16 18 mph 1024.4mb 64f 62f
10:50am 3.5ft 10s 5s 13 16 mph 1024.9mb 64f 62f
9:50am 3ft 10s 5s 13 16 mph 1025mb 64f 62f
8:50am 3ft 9s 5s 11 13 mph 1025mb 64f 62f
7:50am 3.5ft 9s 6s 11 13 mph 1024.9mb 64f 63f
6:50am 3ft 10s 5s 11 13 mph 1024.8mb 64f 63f
5:50am 3.5ft 9s 5s 11 13 mph 1025.1mb 64f 63f
4:50am 3.5ft 9s 5s 11 13 mph 1025mb 64f 63f
3:50am 3ft 9s 5s 13 16 mph 1024.9mb 64f 64f
2:50am 3.5ft 9s 5s 13 18 mph 1025.3mb 64f 64f
1:50am 3ft 9s 5s 16 18 mph 1025.5mb 64f 64f
12:50am 3ft 10s 5s 16 18 mph 1025.5mb 64f 64f
Wed 10/18 11:50pm 3ft 10s 4s 13 16 mph 1025.8mb 64f 64f
10:50pm 3ft 9s 5s 16 18 mph 1026.1mb 64f 65f
9:50pm 2.5ft 9s 4s 16 18 mph 1026.1mb 64f 65f
8:50pm 2.5ft 10s 5s 13 16 mph 1025.8mb 64f 64f
7:50pm 2.5ft 8s 4s 13 16 mph 1025.6mb 64f 64f
6:50pm 2.5ft 10s 5s 16 18 mph 1025.4mb 64f 64f
5:50pm 2.5ft 10s 4s 16 18 mph 1025mb 64f 64f
4:50pm 2.5ft 9s 5s 16 20 mph 1025mb 64f 63f
3:50pm 2.5ft 10s 5s 13 16 mph 1025.3mb 64f 63f
2:50pm 3ft 9s 5s 11 13 mph 1025.8mb 64f 62f
1:50pm 2.5ft 10s 5s 11 13 mph 1026mb 64f 61f
12:50pm 2.5ft 10s 4s 11 13 mph 1026.6mb 64f 61f
11:50am 3ft 11s 4s 11 13 mph 1027.2mb 64f 60f
10:50am 3.5ft 11s 4s 16 18 mph 1026.9mb 63f 59f